createdAt,value
2019-05-28T00:00:55.814Z,6.17
2019-05-28T00:06:03.366Z,6.70
2019-05-28T00:11:10.728Z,7.12
2019-05-28T00:16:17.877Z,6.57
2019-05-28T00:21:25.051Z,6.33
2019-05-28T00:26:32.085Z,5.67
2019-05-28T00:31:39.272Z,4.27
2019-05-28T00:36:46.366Z,5.77
2019-05-28T00:41:53.402Z,3.60
2019-05-28T00:47:00.481Z,6.60
2019-05-28T00:52:08.120Z,6.12
2019-05-28T00:57:16.928Z,7.12
2019-05-28T01:02:24.083Z,6.60
2019-05-28T01:07:31.335Z,7.43
2019-05-28T01:12:38.949Z,6.43
2019-05-28T01:17:46.099Z,6.83
2019-05-28T01:22:53.255Z,6.23
2019-05-28T01:28:00.515Z,6.00
2019-05-28T01:33:07.879Z,7.10
2019-05-28T01:38:15.231Z,8.17
2019-05-28T01:43:22.480Z,4.85
2019-05-28T01:48:29.662Z,4.97
2019-05-28T01:53:36.936Z,4.87
2019-05-28T01:58:44.313Z,4.33
2019-05-28T02:03:51.500Z,5.07
2019-05-28T02:08:58.647Z,8.23
2019-05-28T02:14:06.457Z,7.03
2019-05-28T02:19:14.624Z,5.27
2019-05-28T02:24:21.808Z,7.23
2019-05-28T02:29:28.958Z,5.93
2019-05-28T02:34:36.072Z,6.60
2019-05-28T02:39:43.178Z,5.93
2019-05-28T02:44:50.403Z,10.80
2019-05-28T02:49:59.132Z,6.07
2019-05-28T02:55:06.861Z,4.90
2019-05-28T03:00:16.061Z,5.53
2019-05-28T03:05:23.621Z,4.77
2019-05-28T03:11:01.353Z,9.33
2019-05-28T03:15:49.110Z,7.63
2019-05-28T03:20:58.858Z,7.03
2019-05-28T03:26:06.109Z,6.60
2019-05-28T03:31:13.829Z,8.28
2019-05-28T03:36:23.789Z,7.97
2019-05-28T03:41:31.025Z,7.83
2019-05-28T03:46:38.122Z,6.60
2019-05-28T03:51:45.171Z,7.43
2019-05-28T03:56:52.256Z,7.40
2019-05-28T04:01:59.436Z,8.47
2019-05-28T04:07:06.571Z,11.13
2019-05-28T04:12:13.729Z,7.50
2019-05-28T04:17:20.922Z,6.50
2019-05-28T04:22:28.368Z,7.97
2019-05-28T04:27:35.521Z,6.63
2019-05-28T04:32:42.727Z,3.67
2019-05-28T04:37:49.804Z,4.37
2019-05-28T04:42:56.868Z,4.13
2019-05-28T04:48:03.932Z,6.20
2019-05-28T04:53:11.122Z,5.37
2019-05-28T04:58:18.283Z,4.97
2019-05-28T05:03:25.655Z,4.83
2019-05-28T05:08:32.803Z,7.53
2019-05-28T05:13:40.445Z,6.53
2019-05-28T05:18:47.642Z,9.67
2019-05-28T05:23:55.980Z,5.13
2019-05-28T05:29:03.058Z,6.13
2019-05-28T05:34:10.153Z,5.67
2019-05-28T05:39:18.580Z,4.23
2019-05-28T05:44:25.724Z,4.97
2019-05-28T05:49:32.804Z,5.90
2019-05-28T05:54:39.986Z,5.67
2019-05-28T05:59:47.179Z,6.43
2019-05-28T06:04:54.353Z,6.00
2019-05-28T06:10:01.637Z,5.03
2019-05-28T06:15:09.150Z,4.97
2019-05-28T06:20:16.622Z,6.58
2019-05-28T06:25:23.846Z,9.70
2019-05-28T06:30:31.333Z,6.47
2019-05-28T06:35:38.622Z,8.07
2019-05-28T06:40:45.796Z,6.57
2019-05-28T06:45:52.959Z,3.77
2019-05-28T06:51:00.053Z,5.80
2019-05-28T06:56:07.243Z,6.50
2019-05-28T07:01:14.446Z,7.87
2019-05-28T07:06:21.773Z,8.98
2019-05-28T07:11:28.942Z,9.03
2019-05-28T07:16:49.981Z,8.87
2019-05-28T07:21:45.930Z,11.30
2019-05-28T07:26:53.113Z,7.03
2019-05-28T07:32:00.191Z,5.80
2019-05-28T07:37:07.626Z,6.93
2019-05-28T07:42:31.537Z,6.50
2019-05-28T07:47:24.405Z,5.07
2019-05-28T07:52:31.591Z,7.17
2019-05-28T07:57:38.804Z,4.30
2019-05-28T08:02:45.942Z,5.63
2019-05-28T08:07:53.169Z,4.83
2019-05-28T08:13:00.718Z,4.93
2019-05-28T08:18:08.124Z,5.97
2019-05-28T08:23:15.327Z,5.33
2019-05-28T08:28:22.820Z,5.83
2019-05-28T08:33:30.086Z,7.50
2019-05-28T08:38:37.343Z,6.20
2019-05-28T08:43:44.711Z,7.70
2019-05-28T08:48:51.785Z,10.33
2019-05-28T08:53:58.832Z,6.07
2019-05-28T08:59:06.115Z,9.80
2019-05-28T09:04:13.388Z,6.95
2019-05-28T09:09:20.773Z,7.37
2019-05-28T09:14:27.853Z,10.07
2019-05-28T09:19:34.987Z,6.20
2019-05-28T09:24:42.144Z,6.17
2019-05-28T09:29:49.559Z,5.70
2019-05-28T09:34:56.670Z,5.33
2019-05-28T09:40:04.817Z,7.67
2019-05-28T09:45:22.542Z,5.80
2019-05-28T09:50:30.602Z,9.20
2019-05-28T09:55:30.189Z,5.53
2019-05-28T10:00:54.335Z,5.03
2019-05-28T10:05:58.654Z,6.70
2019-05-28T10:10:56.423Z,4.87
2019-05-28T10:16:03.861Z,6.17
2019-05-28T10:21:18.475Z,5.80
2019-05-28T10:26:20.112Z,5.37
2019-05-28T10:31:27.308Z,8.60
2019-05-28T10:36:37.648Z,6.70
2019-05-28T10:41:44.554Z,5.30
2019-05-28T10:46:51.766Z,4.40
2019-05-28T10:51:58.985Z,4.13
2019-05-28T10:57:07.283Z,4.20
2019-05-28T11:02:16.743Z,3.72
2019-05-28T11:07:23.884Z,4.13
2019-05-28T11:12:31.056Z,3.90
2019-05-28T11:17:38.969Z,7.13
2019-05-28T11:22:46.007Z,5.10
2019-05-28T11:27:54.280Z,4.60
2019-05-28T11:33:01.553Z,4.33
2019-05-28T11:38:09.313Z,3.63
2019-05-28T11:43:16.460Z,4.67
2019-05-28T11:48:23.748Z,4.47
2019-05-28T11:53:30.888Z,2.87
2019-05-28T11:58:37.969Z,3.83
2019-05-28T12:03:45.148Z,3.37
2019-05-28T12:08:52.225Z,3.93
2019-05-28T12:13:59.313Z,5.40
2019-05-28T12:19:06.885Z,4.57
2019-05-28T12:24:15.061Z,3.53
2019-05-28T12:29:22.769Z,2.73
2019-05-28T12:34:29.871Z,4.43
2019-05-28T12:39:36.972Z,4.27
2019-05-28T12:44:45.224Z,3.37
2019-05-28T12:49:52.377Z,5.43
2019-05-28T12:54:59.429Z,5.53
2019-05-28T13:00:08.230Z,3.13
2019-05-28T13:05:17.656Z,4.00
2019-05-28T13:10:24.795Z,3.93
2019-05-28T13:15:32.012Z,4.30
2019-05-28T13:20:39.120Z,5.13
2019-05-28T13:25:46.251Z,3.60
2019-05-28T13:30:53.307Z,4.83
2019-05-28T13:36:00.439Z,3.40
2019-05-28T13:41:07.524Z,6.23
2019-05-28T13:46:14.707Z,4.60
2019-05-28T13:51:21.880Z,5.28
2019-05-28T13:56:28.932Z,6.37
2019-05-28T14:01:36.650Z,6.90
2019-05-28T14:06:44.685Z,7.70
2019-05-28T14:11:51.975Z,5.80
2019-05-28T14:17:00.891Z,4.90
2019-05-28T14:22:08.098Z,6.63
2019-05-28T14:27:15.187Z,4.42
2019-05-28T14:32:22.423Z,5.55
2019-05-28T14:37:29.484Z,6.03
2019-05-28T14:42:36.836Z,6.50
2019-05-28T14:47:43.888Z,6.50
2019-05-28T14:52:50.892Z,8.17
2019-05-28T14:57:58.143Z,6.17
2019-05-28T15:03:05.988Z,6.77
2019-05-28T15:08:13.064Z,4.80
2019-05-28T15:13:20.154Z,5.13
2019-05-28T15:18:28.189Z,6.43
2019-05-28T15:23:35.229Z,8.20
2019-05-28T15:28:42.344Z,7.90
2019-05-28T15:33:49.461Z,10.20
2019-05-28T15:38:56.634Z,6.17
2019-05-28T15:44:03.693Z,8.47
2019-05-28T15:49:10.879Z,8.00
2019-05-28T15:54:18.096Z,7.80
2019-05-28T15:59:25.299Z,5.63
2019-05-28T16:04:34.121Z,6.37
2019-05-28T16:09:55.001Z,7.83
2019-05-28T16:14:50.498Z,6.37
2019-05-28T16:19:57.707Z,7.70
2019-05-28T16:25:04.977Z,6.27
2019-05-28T16:30:12.785Z,8.70
2019-05-28T16:35:21.305Z,6.17
2019-05-28T16:40:28.367Z,10.07
2019-05-28T16:45:35.483Z,5.10
2019-05-28T16:50:42.817Z,16.57
2019-05-28T16:55:50.018Z,9.60
2019-05-28T17:01:04.726Z,7.53
2019-05-28T17:06:06.998Z,6.97
2019-05-28T17:11:14.396Z,6.87
2019-05-28T17:16:21.666Z,7.50
2019-05-28T17:21:29.008Z,6.90
2019-05-28T17:26:36.069Z,8.03
2019-05-28T17:31:43.220Z,15.13
2019-05-28T17:36:50.280Z,7.37
2019-05-28T17:41:57.469Z,11.90
2019-05-28T17:47:04.596Z,10.30
2019-05-28T17:52:12.071Z,7.33
2019-05-28T17:57:19.145Z,6.40
2019-05-28T18:02:26.270Z,7.10
2019-05-28T18:07:33.459Z,7.03
2019-05-28T18:12:40.665Z,9.97
2019-05-28T18:17:47.846Z,6.27
2019-05-28T18:22:54.968Z,7.10
2019-05-28T18:28:02.158Z,6.97
2019-05-28T18:33:09.553Z,7.73
2019-05-28T18:38:17.313Z,8.10
2019-05-28T18:43:24.379Z,6.37
2019-05-28T18:48:31.566Z,7.83
2019-05-28T18:53:38.621Z,7.27
2019-05-28T18:58:45.786Z,10.82
2019-05-28T19:03:52.853Z,5.20
2019-05-28T19:09:00.020Z,6.73
2019-05-28T19:14:07.222Z,8.93
2019-05-28T19:19:14.330Z,8.63
2019-05-28T19:24:22.314Z,8.80
2019-05-28T19:29:30.841Z,8.87
2019-05-28T19:34:38.081Z,11.40
2019-05-28T19:39:46.301Z,10.03
2019-05-28T19:44:53.500Z,9.63
2019-05-28T19:50:02.172Z,8.00
2019-05-28T19:55:09.261Z,11.17
2019-05-28T20:00:16.960Z,13.78
2019-05-28T20:05:24.073Z,10.40
2019-05-28T20:10:31.264Z,9.27
2019-05-28T20:15:38.291Z,7.13
2019-05-28T20:20:45.728Z,8.30
2019-05-28T20:25:54.481Z,14.60
2019-05-28T20:31:03.600Z,16.23
2019-05-28T20:36:11.099Z,12.07
2019-05-28T20:41:18.354Z,11.43
2019-05-28T20:46:25.431Z,9.80
2019-05-28T20:51:32.839Z,10.57
2019-05-28T20:56:39.896Z,10.17
2019-05-28T21:01:47.641Z,11.77
2019-05-28T21:06:56.654Z,11.83
2019-05-28T21:12:04.125Z,15.93
2019-05-28T21:17:11.617Z,9.20
2019-05-28T21:22:26.875Z,10.73
2019-05-28T21:27:27.423Z,11.57
2019-05-28T21:32:34.504Z,11.80
2019-05-28T21:37:41.633Z,10.77
2019-05-28T21:43:00.362Z,12.30
2019-05-28T21:47:58.396Z,14.50
2019-05-28T21:53:05.953Z,12.25
2019-05-28T21:58:13.119Z,14.77
2019-05-28T22:03:20.297Z,11.03
2019-05-28T22:08:27.389Z,9.60
2019-05-28T22:13:35.405Z,8.97
2019-05-28T22:18:42.901Z,7.73
2019-05-28T22:23:49.981Z,7.10
2019-05-28T22:28:57.347Z,6.60
2019-05-28T22:34:05.244Z,6.47
2019-05-28T22:39:12.440Z,8.15
2019-05-28T22:44:19.502Z,11.53
2019-05-28T22:55:08.129Z,7.90
2019-05-28T23:00:16.945Z,9.77
2019-05-28T23:05:24.059Z,6.97
2019-05-28T23:10:31.400Z,7.58
2019-05-28T23:15:38.464Z,8.17
2019-05-28T23:20:45.578Z,8.03
2019-05-28T23:25:52.690Z,11.57
2019-05-28T23:30:59.775Z,9.13
2019-05-28T23:36:06.819Z,11.63
2019-05-28T23:41:15.445Z,8.18
2019-05-28T23:46:23.789Z,6.50
2019-05-28T23:51:30.985Z,7.67
2019-05-28T23:56:38.105Z,8.87
